Time;durP1;ratioP1;P1;durP2;ratioP2;P2;SDS_P1;SDS_P2;PMS_P1;PMS_P2;Temp;Humidity;BMP_temperature;BMP_pressure;BME280_temperature;BME280_humidity;BME280_pressure;Samples;Min_cycle;Max_cycle;Signal;HPM_P1;HPM_P2
2022/09/13 00:00:56;;;;;;;;;4.00;4.00;;;;;21.04;59.26;98934.94;5017550;28;46596;-68
2022/09/13 00:03:22;;;;;;;;;5.40;4.00;;;;;21.00;59.22;98938.84;4998235;28;45449;-69
2022/09/13 00:05:47;;;;;;;;;5.00;5.00;;;;;20.99;59.09;98938.97;5010446;28;45366;-68
2022/09/13 00:08:14;;;;;;;;;5.50;3.00;;;;;20.97;59.67;98935.59;5017217;28;45448;-68
2022/09/13 00:10:41;;;;;;;;;3.75;3.75;;;;;20.96;59.28;98934.72;5017088;28;45442;-68
2022/09/13 00:13:08;;;;;;;;;2.80;2.80;;;;;20.97;59.37;98927.53;5016695;28;45407;-68
2022/09/13 00:15:34;;;;;;;;;3.25;3.25;;;;;20.97;59.09;98922.19;5004499;28;45423;-68
2022/09/13 00:18:00;;;;;;;;;3.75;3.00;;;;;21.00;59.12;98924.59;4997165;28;45442;-70
2022/09/13 00:20:26;;;;;;;;;3.25;3.25;;;;;21.01;59.43;98919.09;5010394;28;45420;-70
2022/09/13 00:22:51;;;;;;;;;4.25;4.25;;;;;21.03;59.17;98916.31;5017381;28;45470;-68
2022/09/13 00:25:17;;;;;;;;;5.50;4.25;;;;;21.05;58.95;98920.56;5017725;28;45397;-69
2022/09/13 00:27:43;;;;;;;;;4.00;4.00;;;;;21.08;59.55;98922.13;5016894;28;45504;-69
2022/09/13 00:30:10;;;;;;;;;3.50;3.50;;;;;21.04;59.75;98916.16;5016854;28;46205;-69
2022/09/13 00:32:36;;;;;;;;;4.00;4.00;;;;;20.99;59.58;98920.22;4997380;28;45462;-69
2022/09/13 00:35:04;;;;;;;;;5.75;4.75;;;;;20.95;60.18;98911.59;4997156;28;45379;-68
2022/09/13 00:37:31;;;;;;;;;2.00;2.00;;;;;20.93;59.51;98910.03;4997452;28;45389;-69
2022/09/13 00:39:56;;;;;;;;;4.25;4.25;;;;;20.92;60.55;98909.19;5011010;28;47055;-69
2022/09/13 00:42:27;;;;;;;;;4.00;4.00;;;;;20.92;59.70;98903.84;4997431;28;45708;-69
2022/09/13 00:44:57;;;;;;;;;3.00;3.00;;;;;20.93;59.03;98910.91;4996372;28;45399;-68
2022/09/13 00:47:28;;;;;;;;;7.25;5.00;;;;;20.95;60.71;98906.22;5009541;28;45436;-68
2022/09/13 00:50:01;;;;;;;;;3.75;3.00;;;;;20.92;60.89;98909.19;4997097;28;45576;-68
2022/09/13 00:52:31;;;;;;;;;4.20;4.20;;;;;20.85;60.60;98902.66;4979234;28;45901;-68
2022/09/13 00:55:05;;;;;;;;;3.00;3.00;;;;;20.81;60.24;98901.22;4996930;28;45339;-68
2022/09/13 00:57:33;;;;;;;;;4.00;4.00;;;;;20.82;60.27;98902.91;4996545;28;45467;-67
2022/09/13 01:00:13;;;;;;;;;5.25;5.00;;;;;20.81;60.71;98904.72;5006727;28;45530;-68
2022/09/13 01:03:05;;;;;;;;;5.00;5.00;;;;;20.80;61.24;98899.50;4998294;28;45393;-68
2022/09/13 01:05:35;;;;;;;;;5.50;4.00;;;;;20.76;61.04;98904.31;5016880;28;45360;-69
2022/09/13 01:08:02;;;;;;;;;5.00;5.00;;;;;20.74;61.56;98902.72;5016299;28;45579;-69
2022/09/13 01:10:30;;;;;;;;;5.50;5.00;;;;;20.71;61.09;98900.31;5016597;28;45718;-69
2022/09/13 01:13:13;;;;;;;;;6.60;3.80;;;;;20.69;61.39;98904.94;5016384;28;45452;-68
2022/09/13 01:15:39;;;;;;;;;6.75;4.75;;;;;20.68;61.21;98903.25;5016529;28;45357;-68
2022/09/13 01:18:06;;;;;;;;;5.00;4.00;;;;;20.66;61.82;98897.16;5009695;28;45664;-67
2022/09/13 01:21:04;;;;;;;;;5.00;5.00;;;;;20.64;61.87;98893.75;4978653;28;47976;-67
2022/09/13 01:24:11;;;;;;;;;5.80;5.80;;;;;20.58;62.85;98891.63;4989118;28;45595;-71
2022/09/13 01:26:58;;;;;;;;;5.25;5.00;;;;;20.54;63.55;98885.66;5001517;28;45425;-73
2022/09/13 01:29:56;;;;;;;;;4.50;4.50;;;;;20.52;63.54;98880.44;4998165;28;45390;-71
2022/09/13 01:32:53;;;;;;;;;5.00;4.00;;;;;20.51;63.24;98881.41;5016008;28;45454;-71
2022/09/13 01:35:55;;;;;;;;;6.40;5.80;;;;;20.49;63.41;98879.84;5016353;28;45375;-71
2022/09/13 01:38:27;;;;;;;;;7.25;3.50;;;;;20.47;64.13;98882.63;5016352;28;45354;-67
2022/09/13 01:41:13;;;;;;;;;5.00;5.00;;;;;20.46;64.08;98878.25;5008487;28;45437;-67
2022/09/13 01:43:41;;;;;;;;;6.25;5.00;;;;;20.45;64.14;98881.91;4995522;28;46274;-68
2022/09/13 01:46:22;;;;;;;;;4.80;4.80;;;;;20.43;64.15;98880.38;5006388;28;45406;-67
2022/09/13 01:49:26;;;;;;;;;5.00;5.00;;;;;20.41;64.13;98874.28;5015943;28;45450;-66
2022/09/13 01:52:00;;;;;;;;;5.00;5.00;;;;;20.39;64.07;98877.09;4994870;28;45558;-68
2022/09/13 01:54:53;;;;;;;;;5.00;5.00;;;;;20.36;63.92;98874.69;5016100;28;46583;-68
2022/09/13 01:57:24;;;;;;;;;5.00;4.60;;;;;20.35;64.36;98872.09;5016139;28;45386;-69
2022/09/13 01:59:54;;;;;;;;;5.50;5.50;;;;;20.32;64.48;98873.19;5010334;28;45418;-69
2022/09/13 02:02:35;;;;;;;;;5.25;4.25;;;;;20.31;64.92;98870.63;5005110;28;45440;-68
2022/09/13 02:05:26;;;;;;;;;5.75;5.00;;;;;20.29;64.73;98870.78;5015105;28;45571;-67
2022/09/13 02:08:05;;;;;;;;;5.40;3.00;;;;;20.28;64.98;98876.25;4999260;28;45405;-66
2022/09/13 02:10:55;;;;;;;;;4.00;4.00;;;;;20.27;64.89;98874.56;4978572;28;45392;-69
2022/09/13 02:13:26;;;;;;;;;6.00;6.00;;;;;20.23;64.61;98876.66;4985656;28;45419;-67
2022/09/13 02:15:58;;;;;;;;;4.00;4.00;;;;;20.21;64.47;98873.25;4981489;28;48617;-68
2022/09/13 02:18:30;;;;;;;;;6.00;4.80;;;;;20.19;64.45;98869.84;5015645;28;45425;-68
2022/09/13 02:21:01;;;;;;;;;5.75;5.00;;;;;20.15;64.54;98871.06;4997618;28;45426;-68
2022/09/13 02:23:36;;;;;;;;;5.00;5.00;;;;;20.14;64.36;98875.56;5015565;28;45521;-68
2022/09/13 02:26:04;;;;;;;;;4.00;4.00;;;;;20.13;64.79;98879.22;5015278;28;46570;-68
2022/09/13 02:28:35;;;;;;;;;4.00;4.00;;;;;20.12;64.53;98872.19;5014823;28;45491;-68
2022/09/13 02:31:06;;;;;;;;;5.75;5.75;;;;;20.11;65.04;98867.78;5015600;28;45472;-69
2022/09/13 02:33:36;;;;;;;;;4.25;4.00;;;;;20.11;65.22;98874.97;5015090;28;45561;-69
2022/09/13 02:36:09;;;;;;;;;5.50;5.00;;;;;20.09;64.61;98877.81;5015218;28;46314;-69
2022/09/13 02:38:44;;;;;;;;;4.80;4.20;;;;;20.08;64.83;98869.91;5015206;28;45359;-69
2022/09/13 02:41:27;;;;;;;;;5.40;4.40;;;;;20.03;65.24;98872.94;4997467;28;45419;-68
2022/09/13 02:44:11;;;;;;;;;7.00;4.75;;;;;20.00;65.87;98883.06;4996913;28;45541;-68
2022/09/13 02:46:53;;;;;;;;;4.50;4.50;;;;;19.97;64.97;98875.28;5013702;28;45716;-67
2022/09/13 02:49:18;;;;;;;;;6.80;3.80;;;;;19.91;65.94;98871.31;4977505;28;45427;-68
2022/09/13 02:52:11;;;;;;;;;5.00;4.00;;;;;19.84;65.78;98870.94;4995460;28;45233;-69
2022/09/13 02:54:44;;;;;;;;;4.25;3.50;;;;;19.80;65.89;98873.97;4995190;28;45533;-69
2022/09/13 02:57:18;;;;;;;;;3.75;3.75;;;;;19.78;66.38;98867.91;4977344;28;46143;-70
2022/09/13 02:59:46;;;;;;;;;3.80;3.60;;;;;19.74;65.99;98867.31;5000303;28;45471;-69
2022/09/13 03:02:18;;;;;;;;;5.40;4.60;;;;;19.73;66.59;98859.44;4995028;28;45413;-69
2022/09/13 03:04:44;;;;;;;;;4.00;4.00;;;;;19.72;66.23;98868.44;5011804;28;45326;-70
2022/09/13 03:07:13;;;;;;;;;4.50;4.50;;;;;19.70;66.47;98860.53;5014860;28;45909;-70
2022/09/13 03:10:07;;;;;;;;;5.60;4.80;;;;;19.71;66.05;98866.72;5014569;28;45422;-69
2022/09/13 03:12:47;;;;;;;;;3.50;3.50;;;;;19.70;65.93;98852.50;5014440;28;45472;-69
2022/09/13 03:15:33;;;;;;;;;6.00;5.00;;;;;19.69;66.72;98849.94;5014882;28;45397;-68
2022/09/13 03:18:08;;;;;;;;;4.00;4.00;;;;;19.65;66.52;98844.00;5014576;28;46540;-68
2022/09/13 03:20:42;;;;;;;;;4.00;4.00;;;;;19.61;66.78;98842.53;5014831;28;45441;-69
2022/09/13 03:23:22;;;;;;;;;5.00;4.00;;;;;19.59;67.02;98838.31;5014810;28;45723;-68
2022/09/13 03:25:53;;;;;;;;;4.75;4.75;;;;;19.56;66.76;98854.59;5014385;28;45390;-68
2022/09/13 03:28:55;;;;;;;;;6.00;5.25;;;;;19.55;66.74;98842.19;4994386;28;45406;-68
2022/09/13 03:31:26;;;;;;;;;4.20;4.20;;;;;19.55;67.14;98839.53;4994904;28;45252;-68
2022/09/13 03:34:11;;;;;;;;;6.00;5.00;;;;;19.53;67.28;98834.31;4994583;28;45417;-67
2022/09/13 03:36:55;;;;;;;;;4.50;4.50;;;;;19.51;67.00;98833.56;4994657;28;45362;-67
2022/09/13 03:39:47;;;;;;;;;5.00;5.00;;;;;19.50;67.43;98842.56;4984997;28;45574;-67
2022/09/13 03:42:24;;;;;;;;;5.00;5.00;;;;;19.47;67.28;98838.28;5014371;28;45406;-67
2022/09/13 03:44:53;;;;;;;;;4.00;4.00;;;;;19.48;67.10;98850.69;5001363;28;45420;-67
2022/09/13 03:47:22;;;;;;;;;5.75;5.75;;;;;19.49;67.27;98848.84;4994622;28;45435;-67
2022/09/13 03:49:50;;;;;;;;;5.50;4.50;;;;;19.48;67.17;98850.69;4994455;28;46514;-67
2022/09/13 03:52:15;;;;;;;;;4.80;3.80;;;;;19.48;66.67;98856.03;4994483;28;45497;-67
2022/09/13 03:54:40;;;;;;;;;4.50;4.50;;;;;19.50;66.78;98864.81;4994451;28;45439;-67
2022/09/13 03:57:19;;;;;;;;;5.00;5.00;;;;;19.52;66.59;98862.88;4994424;28;45417;-67
2022/09/13 03:59:50;;;;;;;;;6.50;6.25;;;;;19.54;66.44;98861.91;5003606;28;45645;-66
2022/09/13 04:02:17;;;;;;;;;6.80;5.80;;;;;19.54;66.55;98860.06;5013901;28;45409;-67
2022/09/13 04:04:43;;;;;;;;;5.00;5.00;;;;;19.55;66.31;98864.44;5010521;28;45398;-67
2022/09/13 04:07:11;;;;;;;;;3.00;3.00;;;;;19.58;66.45;98858.00;5004402;28;45372;-67
2022/09/13 04:09:37;;;;;;;;;6.00;6.00;;;;;19.59;65.84;98859.72;4995847;28;45645;-68
2022/09/13 04:12:03;;;;;;;;;5.00;5.00;;;;;19.60;65.89;98862.25;4995689;28;45407;-68
2022/09/13 04:14:29;;;;;;;;;8.00;6.25;;;;;19.63;66.16;98853.09;5013008;28;45430;-69
2022/09/13 04:16:56;;;;;;;;;7.00;7.00;;;;;19.64;66.03;98854.81;5013836;28;45413;-68
2022/09/13 04:19:23;;;;;;;;;8.00;8.00;;;;;19.65;65.65;98841.31;4995544;28;47070;-69
2022/09/13 04:21:49;;;;;;;;;8.00;7.20;;;;;19.64;65.81;98830.75;5013930;28;45378;-70
2022/09/13 04:24:16;;;;;;;;;6.25;6.25;;;;;19.64;65.96;98822.72;4995945;28;45282;-70
2022/09/13 04:26:41;;;;;;;;;4.00;4.00;;;;;19.65;65.88;98798.53;5013731;28;45394;-70
2022/09/13 04:29:07;;;;;;;;;8.25;7.00;;;;;19.63;66.38;98792.44;4999800;28;45420;-71
2022/09/13 04:31:32;;;;;;;;;5.50;4.25;;;;;19.62;66.40;98790.75;5013836;28;45548;-71
2022/09/13 04:33:59;;;;;;;;;8.25;6.75;;;;;19.61;66.29;98790.88;5015937;28;46122;-71
2022/09/13 04:36:25;;;;;;;;;5.25;5.25;;;;;19.60;66.59;98781.19;5017159;28;45330;-69
2022/09/13 04:38:50;;;;;;;;;5.00;3.00;;;;;19.59;66.84;98771.47;5017060;28;45640;-71
2022/09/13 04:41:16;;;;;;;;;5.75;5.75;;;;;19.58;66.37;98775.09;5016830;28;45412;-72
2022/09/13 04:43:42;;;;;;;;;8.75;8.25;;;;;19.58;66.94;98783.97;4998841;28;45442;-72
2022/09/13 04:46:08;;;;;;;;;6.00;5.25;;;;;19.58;66.25;98791.16;5007649;28;45413;-72
2022/09/13 04:48:34;;;;;;;;;6.75;6.75;;;;;19.59;66.36;98798.19;4981313;28;46424;-72
2022/09/13 04:51:03;;;;;;;;;5.50;4.50;;;;;19.57;66.56;98795.66;4996930;28;45382;-73
2022/09/13 04:53:30;;;;;;;;;6.50;5.00;;;;;19.57;66.01;98794.78;4996949;28;45383;-73
2022/09/13 04:56:02;;;;;;;;;6.25;6.25;;;;;19.56;66.28;98795.78;4996926;28;45566;-73
2022/09/13 04:58:28;;;;;;;;;5.25;5.25;;;;;19.55;65.75;98799.41;4996185;28;45771;-74
2022/09/13 05:00:59;;;;;;;;;7.00;5.50;;;;;19.52;65.93;98793.34;5013603;28;45227;-74
2022/09/13 05:03:24;;;;;;;;;5.00;5.00;;;;;19.51;65.81;98798.81;5016044;28;45426;-73
2022/09/13 05:05:49;;;;;;;;;5.00;5.00;;;;;19.50;65.97;98811.34;5015964;28;45595;-71
2022/09/13 05:08:15;;;;;;;;;8.00;7.00;;;;;19.50;65.95;98810.47;5015991;28;45782;-71
2022/09/13 05:10:40;;;;;;;;;8.25;8.25;;;;;19.49;66.09;98809.63;5016703;28;45463;-71
2022/09/13 05:13:05;;;;;;;;;7.00;7.00;;;;;19.48;65.84;98813.25;5015889;28;45401;-70
2022/09/13 05:15:31;;;;;;;;;7.00;6.00;;;;;19.49;66.23;98814.97;5015646;28;45295;-71
2022/09/13 05:17:56;;;;;;;;;4.75;4.75;;;;;19.51;66.15;98828.22;5009978;28;45434;-66
2022/09/13 05:20:21;;;;;;;;;5.75;5.50;;;;;19.51;66.22;98830.91;5004639;28;45472;-69
2022/09/13 05:22:47;;;;;;;;;6.25;5.00;;;;;19.49;65.73;98825.66;4998009;28;45534;-69
2022/09/13 05:25:12;;;;;;;;;6.25;6.25;;;;;19.50;66.00;98829.19;5004480;28;45514;-69
2022/09/13 05:27:38;;;;;;;;;5.75;5.75;;;;;19.50;66.29;98823.84;4990375;28;46231;-69
2022/09/13 05:30:04;;;;;;;;;6.75;6.75;;;;;19.49;66.28;98833.69;5012029;28;45536;-69
2022/09/13 05:32:30;;;;;;;;;7.50;7.50;;;;;19.50;66.17;98819.34;5009792;28;45469;-69
2022/09/13 05:34:56;;;;;;;;;7.75;6.00;;;;;19.52;65.61;98814.72;4999436;28;45494;-69
2022/09/13 05:37:21;;;;;;;;;4.00;4.00;;;;;19.54;66.01;98806.59;5012681;28;45487;-69
2022/09/13 05:39:47;;;;;;;;;6.00;6.00;;;;;19.55;65.93;98812.78;5005346;28;45474;-68
2022/09/13 05:42:12;;;;;;;;;6.75;4.50;;;;;19.56;65.82;98809.13;4984488;28;45962;-68
2022/09/13 05:44:37;;;;;;;;;5.25;5.25;;;;;19.61;65.70;98807.75;5008922;28;45281;-69
2022/09/13 05:47:03;;;;;;;;;6.00;6.00;;;;;19.64;65.45;98795.97;5006309;28;46325;-68
2022/09/13 05:49:28;;;;;;;;;6.00;5.25;;;;;19.69;65.42;98797.31;5007859;28;45381;-69
2022/09/13 05:51:54;;;;;;;;;8.25;8.00;;;;;19.74;65.22;98810.31;5004967;28;46019;-68
2022/09/13 05:54:19;;;;;;;;;8.00;6.25;;;;;19.77;65.10;98808.19;5005901;28;45475;-69
2022/09/13 05:56:44;;;;;;;;;5.25;5.00;;;;;19.81;64.86;98790.06;5011591;28;45936;-68
2022/09/13 05:59:12;;;;;;;;;8.00;7.00;;;;;19.81;64.82;98801.63;5014839;28;45342;-73
2022/09/13 06:01:37;;;;;;;;;7.00;7.00;;;;;19.82;64.99;98811.34;5013706;28;45488;-69
2022/09/13 06:04:03;;;;;;;;;6.00;6.00;;;;;19.86;64.99;98806.59;4984947;28;45803;-75
2022/09/13 06:06:28;;;;;;;;;9.00;7.25;;;;;19.90;65.28;98808.06;5004303;28;45830;-68
2022/09/13 06:08:55;;;;;;;;;10.25;7.00;;;;;19.93;65.24;98815.84;5007896;28;45541;-69
2022/09/13 06:11:22;;;;;;;;;7.75;6.50;;;;;19.96;65.23;98814.69;4994997;28;45489;-70
2022/09/13 06:13:47;;;;;;;;;6.50;6.25;;;;;19.99;65.54;98807.28;5014183;28;45433;-71
2022/09/13 06:16:14;;;;;;;;;6.25;6.00;;;;;20.05;64.88;98809.44;5014222;28;46262;-76
2022/09/13 06:18:40;;;;;;;;;6.60;5.00;;;;;20.07;64.91;98806.66;4996481;28;45436;-72
2022/09/13 06:21:18;;;;;;;;;6.50;6.00;;;;;20.08;65.38;98811.03;5014150;28;45306;-71
2022/09/13 06:23:48;;;;;;;;;5.75;5.75;;;;;20.08;65.45;98806.53;5014848;28;45420;-71
2022/09/13 06:26:16;;;;;;;;;9.00;7.00;;;;;20.10;65.26;98812.59;5014843;28;45982;-70
2022/09/13 06:28:47;;;;;;;;;8.00;7.00;;;;;20.12;65.38;98807.09;5012348;28;45421;-71
2022/09/13 06:31:13;;;;;;;;;7.75;7.25;;;;;20.13;65.00;98804.28;5000282;28;45507;-70
2022/09/13 06:33:41;;;;;;;;;7.00;7.00;;;;;20.15;64.58;98801.47;4994291;28;45286;-71
2022/09/13 06:36:09;;;;;;;;;7.75;7.00;;;;;20.16;64.67;98809.38;4994330;28;46831;-69
2022/09/13 06:38:35;;;;;;;;;9.20;8.20;;;;;20.16;64.61;98809.38;4990208;28;45745;-69
2022/09/13 06:41:05;;;;;;;;;7.25;6.50;;;;;20.19;64.83;98816.31;5000718;28;45465;-70
2022/09/13 06:43:31;;;;;;;;;6.25;6.00;;;;;20.21;64.50;98817.88;5004780;28;45399;-69
2022/09/13 06:46:00;;;;;;;;;5.25;4.00;;;;;20.24;64.30;98811.44;4995286;28;47539;-70
2022/09/13 06:48:26;;;;;;;;;7.80;7.00;;;;;20.25;64.30;98801.56;4997899;28;45437;-70
2022/09/13 06:50:52;;;;;;;;;6.50;6.50;;;;;20.27;63.96;98791.59;4994379;28;45536;-70
2022/09/13 06:53:17;;;;;;;;;8.00;7.00;;;;;20.29;63.80;98792.28;4994644;28;45260;-70
2022/09/13 06:55:43;;;;;;;;;6.25;5.75;;;;;20.32;63.14;98795.53;4994421;28;46254;-70
2022/09/13 06:58:08;;;;;;;;;5.50;5.50;;;;;20.36;62.70;98798.81;4994121;28;45357;-70
2022/09/13 07:00:33;;;;;;;;;5.00;5.00;;;;;20.41;62.13;98794.81;5000420;28;45412;-70
2022/09/13 07:02:59;;;;;;;;;6.00;6.00;;;;;20.46;62.40;98799.75;4996999;28;45408;-71
2022/09/13 07:05:24;;;;;;;;;8.50;6.00;;;;;20.51;62.10;98801.06;5005419;28;45456;-70
2022/09/13 07:07:49;;;;;;;;;7.75;6.00;;;;;20.60;62.23;98799.44;4998243;28;45435;-70
2022/09/13 07:10:15;;;;;;;;;7.50;7.00;;;;;20.65;61.89;98805.22;4994597;28;45319;-70
2022/09/13 07:12:41;;;;;;;;;7.50;7.50;;;;;20.71;61.75;98807.38;5006759;28;45621;-70
2022/09/13 07:15:07;;;;;;;;;112.00;99.60;;;;;20.80;61.76;98798.53;5004875;28;45509;-69
2022/09/13 07:17:32;;;;;;;;;2216.25;1138.50;;;;;20.95;62.02;98803.56;4992604;28;45458;-73
2022/09/13 07:19:57;;;;;;;;;6.75;6.75;;;;;21.06;60.82;98804.31;4989935;28;45438;-63
2022/09/13 07:22:25;;;;;;;;;7.25;7.25;;;;;21.14;60.57;98800.94;4992415;28;45342;-66
2022/09/13 07:24:51;;;;;;;;;5.25;5.00;;;;;21.16;60.44;98796.28;5004118;28;46371;-68
2022/09/13 07:27:17;;;;;;;;;7.50;5.75;;;;;21.15;61.03;98802.63;5004068;28;45416;-69
2022/09/13 07:29:44;;;;;;;;;7.00;7.00;;;;;21.18;60.38;98799.69;5005795;28;45478;-68
2022/09/13 07:32:09;;;;;;;;;6.25;6.25;;;;;21.19;60.66;98796.91;5002727;28;45363;-69
2022/09/13 07:34:35;;;;;;;;;5.50;5.50;;;;;21.21;60.11;98800.31;5006149;28;46350;-67
2022/09/13 07:37:01;;;;;;;;;7.25;7.00;;;;;21.25;60.05;98803.56;5010962;28;45737;-68
2022/09/13 07:39:26;;;;;;;;;10.00;8.75;;;;;21.29;59.86;98799.59;5005509;28;45386;-69
2022/09/13 07:41:52;;;;;;;;;9.50;6.50;;;;;21.33;59.88;98803.72;5005559;28;45377;-67
2022/09/13 07:44:18;;;;;;;;;7.50;7.25;;;;;21.39;59.43;98802.31;4983798;28;48010;-69
2022/09/13 07:46:43;;;;;;;;;5.00;5.00;;;;;21.41;59.83;98795.84;5004222;28;45509;-67
2022/09/13 07:49:15;;;;;;;;;8.50;6.00;;;;;21.47;59.22;98797.94;5008552;28;45420;-67
2022/09/13 07:51:42;;;;;;;;;9.25;8.00;;;;;21.54;59.64;98801.78;5003171;28;45515;-69
2022/09/13 07:54:16;;;;;;;;;6.00;6.00;;;;;21.61;59.25;98787.84;5000852;28;46137;-70
2022/09/13 07:56:42;;;;;;;;;5.80;5.80;;;;;21.65;59.21;98790.09;5003720;28;45389;-70
2022/09/13 07:59:13;;;;;;;;;2.00;2.00;;;;;21.72;60.04;98796.59;5009923;28;45439;-64
2022/09/13 08:01:42;;;;;;;;;10.50;9.50;;;;;21.86;59.40;98793.50;4993895;28;45371;-69
2022/09/13 08:04:10;;;;;;;;;9.00;8.75;;;;;21.94;58.95;98785.59;5005210;28;45440;-71
2022/09/13 08:06:38;;;;;;;;;8.20;8.20;;;;;21.99;58.79;98781.63;5013396;28;45457;-70
2022/09/13 08:09:05;;;;;;;;;7.50;7.50;;;;;22.03;58.42;98791.97;5016202;28;45358;-68
2022/09/13 08:11:32;;;;;;;;;8.00;7.00;;;;;22.11;58.62;98788.59;5011024;28;45501;-71
2022/09/13 08:13:58;;;;;;;;;8.00;8.00;;;;;22.19;58.47;98786.88;4978607;28;46598;-69
2022/09/13 08:16:25;;;;;;;;;6.80;6.80;;;;;22.28;58.03;98787.88;4997119;28;45433;-69
2022/09/13 08:18:53;;;;;;;;;9.25;9.25;;;;;22.35;57.62;98788.97;4997305;28;45407;-69
2022/09/13 08:21:19;;;;;;;;;9.50;7.75;;;;;22.41;57.98;98796.47;5010355;28;45262;-69
2022/09/13 08:23:45;;;;;;;;;9.75;8.00;;;;;22.49;57.15;98791.22;5004088;28;46173;-69
2022/09/13 08:26:11;;;;;;;;;7.00;7.00;;;;;22.57;57.38;98794.03;5020731;28;45410;-69
2022/09/13 08:28:41;;;;;;;;;8.00;8.00;;;;;22.66;56.74;98792.31;4996711;28;45471;-69
2022/09/13 08:31:07;;;;;;;;;6.50;6.50;;;;;22.73;56.59;98787.19;4996688;28;45418;-69
2022/09/13 08:33:33;;;;;;;;;7.75;7.00;;;;;22.83;56.91;98788.03;4977229;28;48334;-69
2022/09/13 08:35:58;;;;;;;;;23.50;21.00;;;;;22.91;56.51;98791.69;4977454;28;45442;-69
2022/09/13 08:38:24;;;;;;;;;10.00;9.00;;;;;23.03;56.07;98780.75;4996156;28;45452;-69
2022/09/13 08:40:54;;;;;;;;;7.00;6.25;;;;;23.14;55.93;98781.38;5015040;28;45401;-69
2022/09/13 08:43:22;;;;;;;;;11.75;10.25;;;;;23.29;55.77;98787.16;5012854;28;45484;-69
2022/09/13 08:46:09;;;;;;;;;5.80;5.80;;;;;23.41;55.19;98787.78;4985574;28;45725;-69
2022/09/13 08:48:40;;;;;;;;;8.00;6.00;;;;;23.53;54.79;98783.91;4979966;28;45455;-68
2022/09/13 08:51:10;;;;;;;;;6.25;6.25;;;;;23.59;54.25;98792.22;4996450;28;45434;-67
2022/09/13 08:53:47;;;;;;;;;8.50;8.50;;;;;23.65;53.65;98793.44;4996364;28;45399;-68
2022/09/13 08:56:34;;;;;;;;;10.00;7.20;;;;;23.68;53.05;98782.38;4996154;28;45331;-68
2022/09/13 08:59:03;;;;;;;;;7.00;7.00;;;;;23.75;52.97;98785.31;4988087;28;45513;-68
2022/09/13 09:01:43;;;;;;;;;7.25;6.50;;;;;23.82;52.83;98802.53;5016079;28;45414;-68
2022/09/13 09:04:20;;;;;;;;;8.25;7.25;;;;;23.87;52.87;98790.31;5015748;28;46466;-68
2022/09/13 09:06:46;;;;;;;;;8.00;8.00;;;;;23.93;52.46;98799.63;5016270;28;45412;-68
2022/09/13 09:09:20;;;;;;;;;6.50;5.50;;;;;23.98;52.02;98798.16;5001930;28;45437;-69
2022/09/13 09:12:21;;;;;;;;;7.75;6.25;;;;;24.05;51.70;98786.78;5004881;28;45405;-68
2022/09/13 09:15:02;;;;;;;;;6.60;4.80;;;;;24.16;52.27;98794.59;4992453;28;45480;-69
2022/09/13 09:17:38;;;;;;;;;6.00;6.00;;;;;24.22;52.00;98783.22;5015839;28;45537;-69
2022/09/13 09:20:09;;;;;;;;;5.00;4.60;;;;;24.26;51.71;98781.94;5006233;28;45326;-68
2022/09/13 09:22:35;;;;;;;;;5.00;5.00;;;;;24.29;51.59;98781.63;5011989;28;45449;-68
2022/09/13 09:25:01;;;;;;;;;4.25;3.50;;;;;24.35;51.42;98784.53;5005703;28;46059;-69
2022/09/13 09:27:29;;;;;;;;;5.80;5.80;;;;;24.48;52.06;98788.66;5012553;28;45351;-69
2022/09/13 09:29:59;;;;;;;;;10.00;8.60;;;;;24.57;51.46;98785.03;5016152;28;45347;-69
2022/09/13 09:32:49;;;;;;;;;11.75;8.75;;;;;24.66;51.33;98778.69;5011415;28;45563;-69
2022/09/13 09:35:36;;;;;;;;;7.00;6.00;;;;;24.77;51.54;98785.66;4996119;28;45574;-70
2022/09/13 09:38:30;;;;;;;;;6.20;6.20;;;;;24.89;51.06;98781.69;4995922;28;45653;-68
2022/09/13 09:40:56;;;;;;;;;7.00;6.80;;;;;24.99;50.80;98775.19;5003662;28;45460;-68
2022/09/13 09:43:38;;;;;;;;;6.75;6.00;;;;;25.14;50.80;98774.56;4999302;28;45472;-69
2022/09/13 09:46:08;;;;;;;;;6.00;6.00;;;;;25.25;50.72;98768.91;5005834;28;46137;-70
2022/09/13 09:48:43;;;;;;;;;6.00;5.80;;;;;25.29;50.61;98762.19;5014951;28;45428;-68
2022/09/13 09:51:12;;;;;;;;;6.40;5.80;;;;;25.37;49.87;98767.59;5015567;28;45417;-69
2022/09/13 09:53:44;;;;;;;;;9.00;8.00;;;;;25.43;50.21;98766.09;4997575;28;45484;-68
2022/09/13 09:56:27;;;;;;;;;10.75;7.00;;;;;25.49;50.20;98752.78;5015194;28;45639;-68
2022/09/13 09:58:54;;;;;;;;;7.60;5.80;;;;;25.54;50.26;98752.28;5013790;28;45212;-69
2022/09/13 10:01:29;;;;;;;;;3.80;2.20;;;;;25.60;49.88;98757.88;5005231;28;45471;-69
2022/09/13 10:04:02;;;;;;;;;7.25;5.50;;;;;25.66;49.72;98748.28;5004632;28;45400;-62
2022/09/13 10:06:29;;;;;;;;;3.60;3.20;;;;;25.67;49.79;98753.53;4995223;28;47376;-63
2022/09/13 10:09:13;;;;;;;;;8.40;6.80;;;;;25.69;49.87;98756.91;4990803;28;45566;-65
2022/09/13 10:11:49;;;;;;;;;6.00;5.80;;;;;25.69;49.69;98756.91;5008300;28;45604;-67
2022/09/13 10:14:33;;;;;;;;;9.25;8.50;;;;;25.69;49.61;98753.34;5001042;28;45552;-66
2022/09/13 10:17:20;;;;;;;;;7.80;7.40;;;;;25.69;49.48;98747.97;5004405;28;45560;-67
2022/09/13 10:19:53;;;;;;;;;6.20;6.20;;;;;25.73;49.00;98741.22;5004146;28;45496;-67
2022/09/13 10:22:19;;;;;;;;;8.60;5.40;;;;;25.77;48.80;98744.44;5012536;28;45599;-67
2022/09/13 10:24:45;;;;;;;;;7.00;7.00;;;;;25.81;48.47;98745.78;5005117;28;45527;-69
2022/09/13 10:27:25;;;;;;;;;4.75;4.75;;;;;25.91;47.85;98747.31;5006567;28;46522;-69
2022/09/13 10:29:58;;;;;;;;;3.80;3.80;;;;;26.01;47.13;98750.69;5008281;28;45865;-68
2022/09/13 10:32:24;;;;;;;;;7.25;5.25;;;;;26.12;47.78;98737.88;5000391;28;45426;-67
2022/09/13 10:34:50;;;;;;;;;5.00;5.00;;;;;26.18;46.86;98740.72;4994769;28;45529;-70
2022/09/13 10:37:25;;;;;;;;;5.00;5.00;;;;;26.24;46.47;98744.63;4994530;28;46170;-66
2022/09/13 10:40:08;;;;;;;;;178.67;156.33;;;;;26.27;46.58;98741.59;4994307;28;45424;-69
2022/09/13 10:42:35;;;;;;;;;5.40;5.00;;;;;26.34;45.07;98739.91;5002212;28;45444;-69
2022/09/13 10:45:02;;;;;;;;;5.00;5.00;;;;;26.44;45.62;98734.31;4993550;28;45462;-66
2022/09/13 10:47:46;;;;;;;;;8.60;5.00;;;;;26.50;44.88;98726.34;4996316;28;45639;-69
2022/09/13 10:50:18;;;;;;;;;6.20;5.00;;;;;26.56;45.47;98728.38;5008107;28;45350;-69
2022/09/13 10:52:50;;;;;;;;;6.50;5.50;;;;;26.64;45.12;98727.53;4987504;28;45479;-69
2022/09/13 10:55:19;;;;;;;;;5.00;5.00;;;;;26.71;45.32;98720.41;4994882;28;45342;-68
2022/09/13 10:57:53;;;;;;;;;5.20;5.00;;;;;26.70;45.29;98721.41;4994220;28;45405;-68
2022/09/13 11:00:21;;;;;;;;;6.20;5.60;;;;;26.68;44.84;98713.47;5005642;28;45378;-68
2022/09/13 11:03:06;;;;;;;;;6.25;6.25;;;;;26.70;44.61;98716.00;5013873;28;45459;-67
2022/09/13 11:05:42;;;;;;;;;5.00;4.00;;;;;26.75;45.00;98713.63;5014595;28;45338;-69
2022/09/13 11:08:26;;;;;;;;;5.00;4.80;;;;;26.80;45.11;98707.69;5013832;28;45526;-68
2022/09/13 11:10:52;;;;;;;;;5.00;4.80;;;;;26.83;44.48;98707.31;5006959;28;45441;-69
2022/09/13 11:13:29;;;;;;;;;5.75;5.25;;;;;26.91;44.75;98702.75;4989491;28;45292;-67
2022/09/13 11:15:59;;;;;;;;;6.00;6.00;;;;;26.93;44.00;98708.84;4994316;28;45434;-71
2022/09/13 11:18:30;;;;;;;;;5.80;5.80;;;;;26.93;44.04;98716.09;5001597;28;48484;-68
2022/09/13 11:21:17;;;;;;;;;6.40;5.80;;;;;26.91;45.24;98702.75;4998793;28;45508;-68
2022/09/13 11:23:48;;;;;;;;;5.20;5.20;;;;;26.87;44.76;98708.69;5009161;28;45422;-68
2022/09/13 11:26:19;;;;;;;;;7.00;6.00;;;;;26.89;44.93;98703.94;5005060;28;45591;-64
2022/09/13 11:29:03;;;;;;;;;5.00;5.00;;;;;26.91;44.81;98707.31;4999104;28;46118;-63
2022/09/13 11:31:40;;;;;;;;;4.80;4.80;;;;;26.90;45.17;98697.50;5010257;28;45519;-64
2022/09/13 11:34:17;;;;;;;;;7.80;6.80;;;;;26.91;45.15;98691.91;5009592;28;45326;-64
2022/09/13 11:37:16;;;;;;;;;7.25;6.25;;;;;27.03;45.33;98693.25;5008753;28;45581;-64
2022/09/13 11:40:11;;;;;;;;;5.00;5.00;;;;;27.16;44.92;98691.81;5005767;28;46682;-63
2022/09/13 11:42:50;;;;;;;;;4.40;4.40;;;;;27.22;44.76;98683.00;5004001;28;45617;-63
2022/09/13 11:45:30;;;;;;;;;5.60;4.80;;;;;27.31;44.73;98680.09;5009209;28;45500;-68
2022/09/13 11:48:26;;;;;;;;;5.50;5.50;;;;;27.33;44.26;98680.72;5012768;28;45560;-68
2022/09/13 11:51:16;;;;;;;;;8.00;7.00;;;;;27.33;44.43;98680.72;5010741;28;46585;-69
2022/09/13 11:54:16;;;;;;;;;6.20;6.20;;;;;27.39;43.76;98671.06;5009918;28;45379;-69